Bellefontaine, OH

12:55 PM EDT on October 19, 2017 (GMT -0400)
Bellefontaine

Weather History for KEDJ - September, 2013

Change the Weather History Date:

Monday, September 16, 2013

  Actual Average (KDLZ) Record (KDLZ)
Temperature  
Mean Temperature 58 °F -  
Max Temperature 66 °F 76 °F 100 °F (1939)
Min Temperature 51 °F 50 °F 37 °F (1966)
Degree Days  
Heating Degree Days 6    
Growing Degree Days 8 (Base 50)    
Moisture  
Dew Point 53 °F    
Average Humidity 85    
Maximum Humidity 100    
Minimum Humidity 52    
Precipitation  
Precipitation 0.03 in - - ()
Sea Level Pressure  
Sea Level Pressure 30.22 in    
Wind  
Wind Speed 7 mph (NNE)    
Max Wind Speed 14 mph    
Max Gust Speed -    
Visibility 8 miles    
Events      
Averages and records for this station are not official NWS values.
T = Trace of Precipitation, MM = Missing Value Source: NWS Daily Summary

Daily Weather History Graph

Daily Weather History Graph

Search for Another Location

Airport or City:

Trip Planner

Search our weather history database for the weather conditions in past years. The results will help you decide how hot, cold, wet, or windy it might be!

Date:

Astronomy

Sep. 16, 2013 Rise Set
Actual Time 7:17 AM EDT 7:42 PM EDT
Civil Twilight 6:49 AM EDT 8:09 PM EDT
Nautical Twilight 6:17 AM EDT 8:41 PM EDT
Astronomical Twilight 5:44 AM EDT 9:14 PM EDT
Moon 5:50 PM EDT (9/16) 4:01 AM EDT (9/16)
Length of Visible Light 13h 19m
Length of Day
12h 24m
Waxing Gibbous, 90% of the Moon is Illuminated
Sep 16
Waxing Gibbous
Sep 19
Full
Sep 26
Last Quarter
Oct 4
New
Oct 11
First Quarter

Hourly Weather History & Observations

Time (EDT) Temp. Dew Point Humidity Pressure Visibility Wind Dir Wind Speed Gust Speed Precip Events Conditions
12:10 AM 55.4 °F 55.4 °F 100% 30.11 in 5.0 mi NNE 11.5 mph - 0.00 in   Overcast
12:30 AM 55.4 °F 55.4 °F 100% 30.11 in 4.0 mi NNE 10.4 mph - 0.03 in   Mostly Cloudy
12:50 AM 55.4 °F 55.4 °F 100% 30.11 in 3.0 mi NNE 9.2 mph - 0.08 in   Overcast
1:10 AM 55.4 °F 55.4 °F 100% 30.11 in 5.0 mi NE 9.2 mph - 0.01 in   Overcast
1:30 AM 55.4 °F 55.4 °F 100% 30.11 in 5.0 mi NE 3.5 mph - 0.02 in   Mostly Cloudy
1:50 AM 55.4 °F 55.4 °F 100% 30.11 in 8.0 mi Calm Calm - 0.03 in   Mostly Cloudy
2:10 AM 55.4 °F 55.4 °F 100% 30.11 in 6.0 mi Calm Calm - 0.00 in   Overcast
2:30 AM 55.4 °F 55.4 °F 100% 30.11 in 7.0 mi Calm Calm - 0.00 in   Overcast
2:50 AM 55.4 °F 55.4 °F 100% 30.11 in 6.0 mi Calm Calm - 0.00 in   Overcast
3:10 AM 55.4 °F 55.4 °F 100% 30.11 in 5.0 mi Calm Calm - 0.00 in   Overcast
3:30 AM 55.4 °F 55.4 °F 100% 30.12 in 4.0 mi Calm Calm - 0.00 in   Overcast
3:50 AM 55.4 °F 55.4 °F 100% 30.12 in 5.0 mi Calm Calm - 0.00 in   Overcast
4:10 AM 55.4 °F 55.4 °F 100% 30.12 in 2.5 mi Calm Calm - 0.00 in   Overcast
4:30 AM 53.6 °F 53.6 °F 100% 30.12 in 1.5 mi Calm Calm - 0.00 in   Overcast
4:50 AM 53.6 °F 53.6 °F 100% 30.13 in 1.5 mi Calm Calm - 0.00 in   Overcast
5:10 AM 53.6 °F 53.6 °F 100% 30.14 in 2.0 mi Calm Calm - 0.00 in   Overcast
5:30 AM 53.6 °F 53.6 °F 100% 30.14 in 2.0 mi Calm Calm - 0.00 in   Overcast
5:50 AM 55.4 °F 55.4 °F 100% 30.15 in 2.5 mi Calm Calm - 0.00 in   Overcast
6:10 AM 55.4 °F 55.4 °F 100% 30.16 in 1.8 mi North 5.8 mph - 0.00 in   Overcast
6:30 AM 55.4 °F 55.4 °F 100% 30.16 in 2.0 mi NNE 4.6 mph - 0.00 in   Overcast
6:50 AM 55.4 °F 55.4 °F 100% 30.17 in 3.0 mi NNE 5.8 mph - 0.00 in   Overcast
7:10 AM 55.4 °F 55.4 °F 100% 30.17 in 4.0 mi North 6.9 mph - 0.00 in   Overcast
7:30 AM 55.4 °F 55.4 °F 100% 30.18 in 3.0 mi North 6.9 mph - 0.00 in   Overcast
7:50 AM 55.4 °F 55.4 °F 100% 30.19 in 4.0 mi North 8.1 mph - 0.00 in   Overcast
8:10 AM 55.4 °F 55.4 °F 100% 30.20 in 5.0 mi North 8.1 mph - 0.00 in   Overcast
8:30 AM 55.4 °F 55.4 °F 100% 30.20 in 5.0 mi North 8.1 mph - 0.00 in   Overcast
8:50 AM 55.4 °F 55.4 °F 100% 30.21 in 7.0 mi North 9.2 mph - 0.00 in   Overcast
9:10 AM 55.4 °F 55.4 °F 100% 30.22 in 8.0 mi NNE 8.1 mph - 0.00 in   Overcast
9:30 AM 55.4 °F 55.4 °F 100% 30.22 in 10.0 mi North 9.2 mph - 0.00 in   Scattered Clouds
9:50 AM 57.2 °F 55.4 °F 94% 30.23 in 10.0 mi North 10.4 mph - 0.00 in   Mostly Cloudy
10:10 AM 57.2 °F 53.6 °F 88% 30.24 in 10.0 mi North 11.5 mph - 0.00 in   Overcast
10:30 AM 57.2 °F 53.6 °F 88% 30.25 in 10.0 mi North 10.4 mph - 0.00 in   Overcast
10:50 AM 59.0 °F 53.6 °F 82% 30.26 in 10.0 mi NNE 10.4 mph - 0.00 in   Mostly Cloudy
11:10 AM 57.2 °F 53.6 °F 88% 30.27 in 10.0 mi North 11.5 mph - 0.00 in   Overcast
11:30 AM 57.2 °F 53.6 °F 88% 30.27 in 10.0 mi NNE 11.5 mph - 0.00 in   Overcast
11:50 AM 57.2 °F 53.6 °F 88% 30.28 in 10.0 mi North 8.1 mph - 0.00 in   Overcast
12:10 PM 57.2 °F 53.6 °F 88% 30.28 in 10.0 mi North 10.4 mph - 0.00 in   Overcast
12:30 PM 57.2 °F 51.8 °F 82% 30.28 in 10.0 mi NNE 6.9 mph - 0.00 in   Overcast
12:50 PM 57.2 °F 51.8 °F 82% 30.28 in 10.0 mi NE 6.9 mph - 0.00 in   Overcast
1:10 PM 59.0 °F 51.8 °F 77% 30.28 in 10.0 mi Calm Calm - 0.00 in   Mostly Cloudy
1:30 PM 60.8 °F 51.8 °F 72% 30.28 in 10.0 mi NNW 3.5 mph - 0.00 in   Mostly Cloudy
1:50 PM 60.8 °F 51.8 °F 72% 30.28 in 10.0 mi North 10.4 mph - 0.00 in   Overcast
2:10 PM 62.6 °F 53.6 °F 72% 30.28 in 10.0 mi North 8.1 mph - 0.00 in   Overcast
2:30 PM 62.6 °F 53.6 °F 72% 30.27 in 10.0 mi North 11.5 mph - 0.00 in   Overcast
2:50 PM 62.6 °F 53.6 °F 72% 30.27 in 10.0 mi NNW 3.5 mph - 0.00 in   Overcast
3:10 PM 62.6 °F 51.8 °F 68% 30.26 in 10.0 mi NNE 4.6 mph - 0.00 in   Overcast
3:30 PM 62.6 °F 51.8 °F 68% 30.26 in 10.0 mi North 4.6 mph - 0.00 in   Mostly Cloudy
3:50 PM 66.2 °F 48.2 °F 52% 30.25 in 10.0 mi North 8.1 mph - 0.00 in   Mostly Cloudy
4:10 PM 64.4 °F 50.0 °F 59% 30.25 in 10.0 mi NNW 5.8 mph - 0.00 in   Scattered Clouds
4:30 PM 66.2 °F 50.0 °F 56% 30.24 in 10.0 mi North 12.7 mph - 0.00 in   Mostly Cloudy
4:50 PM 66.2 °F 48.2 °F 52% 30.25 in 10.0 mi NNW 8.1 mph - 0.00 in   Scattered Clouds
5:10 PM 64.4 °F 48.2 °F 56% 30.25 in 10.0 mi North 8.1 mph - 0.00 in   Mostly Cloudy
5:30 PM 66.2 °F 48.2 °F 52% 30.25 in 10.0 mi North 13.8 mph - 0.00 in   Mostly Cloudy
5:50 PM 66.2 °F 48.2 °F 52% 30.25 in 10.0 mi North 6.9 mph - 0.00 in   Scattered Clouds
6:10 PM 66.2 °F 50.0 °F 56% 30.25 in 10.0 mi NNE 9.2 mph - 0.00 in   Scattered Clouds
6:30 PM 64.4 °F 50.0 °F 59% 30.25 in 10.0 mi NNE 10.4 mph - 0.00 in   Mostly Cloudy
6:50 PM 60.8 °F 50.0 °F 68% 30.26 in 10.0 mi NNE 6.9 mph - 0.00 in   Scattered Clouds
7:10 PM 59.0 °F 50.0 °F 72% 30.26 in 10.0 mi North 5.8 mph - 0.00 in   Clear
7:30 PM 59.0 °F 50.0 °F 72% 30.26 in 10.0 mi NNE 6.9 mph - 0.00 in   Clear
7:50 PM 57.2 °F 50.0 °F 77% 30.26 in 10.0 mi North 5.8 mph - 0.00 in   Clear
8:10 PM 57.2 °F 50.0 °F 77% 30.26 in 10.0 mi NNE 6.9 mph - 0.00 in   Clear
8:30 PM 55.4 °F 50.0 °F 82% 30.27 in 10.0 mi NNE 8.1 mph - 0.00 in   Clear
8:50 PM 55.4 °F 50.0 °F 82% 30.28 in 10.0 mi NE 8.1 mph - 0.00 in   Clear
9:10 PM 55.4 °F 50.0 °F 82% 30.29 in 10.0 mi NE 8.1 mph - 0.00 in   Clear
9:30 PM 55.4 °F 50.0 °F 82% 30.29 in 10.0 mi NE 6.9 mph - 0.00 in   Clear
9:50 PM 53.6 °F 50.0 °F 88% 30.29 in 10.0 mi NNE 6.9 mph - 0.00 in   Clear
10:10 PM 53.6 °F 50.0 °F 88% 30.30 in 10.0 mi NNE 8.1 mph - 0.00 in   Clear
10:30 PM 53.6 °F 48.2 °F 82% 30.30 in 10.0 mi NE 9.2 mph - 0.00 in   Clear
10:50 PM 53.6 °F 48.2 °F 82% 30.30 in 10.0 mi NE 10.4 mph - 0.00 in   Clear
11:10 PM 51.8 °F 48.2 °F 88% 30.30 in 10.0 mi NE 8.1 mph - 0.00 in   Clear
11:30 PM 51.8 °F 48.2 °F 88% 30.30 in 10.0 mi NE 9.2 mph - 0.00 in   Clear
11:50 PM 51.8 °F 48.2 °F 88% 30.31 in 10.0 mi ENE 9.2 mph - 0.00 in   Clear